Atlanta, Georgia
Current Conditions -  °F | °C
As of 10:13 PM on Monday 22 Dec 2014 (Local Time) from KATL Reporting Station
Overcast Overcast  
Wind Chill: 39°   Ceiling: 300
Heat Index: 45°   Visibility: 1mi
Dew Point: 43°   Wind: 12mph
Humidity: 93%   Direction: 90°E
Pressure: 29.92"   Gusts: NA
Location:  33.75°N, 84.39°W
Report Text: KATL 230313Z 09010KT 1SM OVC003 07/06 A2992 RMK AO2 SFC VIS 8 CIG 002V005
Loading
Personal Weather Stations






























Interactive Weather Map New forecast layout! Learn more

10-Day Weather Forecast

Advertisements
Track Severe Weather on mobile